PUA2603 SAEZ-SUMU
Flight info
| Callsign | PUA2603 |
|---|---|
| Flight time | 0h 33m |
| Altitude | 17000 |
| Route | DORVO1E DORVO A305 TOKAM |
| Aircraft | A339/H-SADE1E2E3GHIJ3J5M1P2RWXY/LB2D1 |
Departure
| Time | 2026-05-08 17:54 |
|---|---|
| Airport | Ezeiza International Airport - Ministro Pistarini (SAEZ) |
Arrival
| Time | 2026-05-08 18:27 |
|---|---|
| Airport | Carrasco General Cesáreo L. Berisso International Airport (SUMU) |
| Time | Latitude | Longitude | Altitude | Speed | Heading |
|---|---|---|---|---|---|
| 2026-05-08 17:31 | -34.81469 | -58.53746 | 94 ft | 0 kts | 325° |
| 2026-05-08 17:44 | -34.81470 | -58.53745 | 94 ft | 1 kts | 325° |
| 2026-05-08 17:44 | -34.81483 | -58.53735 | 94 ft | 2 kts | 325° |
| 2026-05-08 17:44 | -34.81495 | -58.53724 | 94 ft | 2 kts | 325° |
| 2026-05-08 17:45 | -34.81508 | -58.53714 | 94 ft | 2 kts | 325° |
| 2026-05-08 17:45 | -34.81520 | -58.53703 | 94 ft | 2 kts | 325° |
| 2026-05-08 17:45 | -34.81528 | -58.53696 | 93 ft | 2 kts | 319° |
| 2026-05-08 17:45 | -34.81534 | -58.53681 | 93 ft | 2 kts | 265° |
| 2026-05-08 17:46 | -34.81529 | -58.53664 | 93 ft | 1 kts | 223° |
| 2026-05-08 17:46 | -34.81524 | -58.53659 | 93 ft | 0 kts | 218° |
| 2026-05-08 17:48 | -34.81532 | -58.53666 | 93 ft | 3 kts | 218° |
| 2026-05-08 17:48 | -34.81565 | -58.53698 | 92 ft | 8 kts | 218° |
| 2026-05-08 17:48 | -34.81617 | -58.53748 | 92 ft | 10 kts | 218° |
| 2026-05-08 17:48 | -34.81682 | -58.53760 | 91 ft | 10 kts | 158° |
| 2026-05-08 17:49 | -34.81756 | -58.53718 | 89 ft | 13 kts | 155° |
| 2026-05-08 17:49 | -34.81848 | -58.53666 | 86 ft | 15 kts | 151° |
| 2026-05-08 17:49 | -34.81918 | -58.53572 | 83 ft | 15 kts | 102° |
| 2026-05-08 17:49 | -34.81942 | -58.53435 | 81 ft | 17 kts | 102° |
| 2026-05-08 17:50 | -34.81970 | -58.53286 | 80 ft | 18 kts | 104° |
| 2026-05-08 17:50 | -34.82001 | -58.53133 | 79 ft | 19 kts | 104° |
| 2026-05-08 17:50 | -34.82036 | -58.52970 | 77 ft | 20 kts | 104° |
| 2026-05-08 17:50 | -34.82070 | -58.52800 | 77 ft | 20 kts | 102° |
| 2026-05-08 17:51 | -34.82102 | -58.52626 | 75 ft | 21 kts | 103° |
| 2026-05-08 17:51 | -34.82136 | -58.52455 | 76 ft | 21 kts | 104° |
| 2026-05-08 17:51 | -34.82170 | -58.52284 | 77 ft | 20 kts | 104° |
| 2026-05-08 17:51 | -34.82205 | -58.52112 | 77 ft | 20 kts | 104° |
| 2026-05-08 17:52 | -34.82241 | -58.51942 | 76 ft | 21 kts | 104° |
| 2026-05-08 17:52 | -34.82278 | -58.51792 | 73 ft | 7 kts | 136° |
| 2026-05-08 17:52 | -34.82413 | -58.51801 | 73 ft | 15 kts | 190° |
| 2026-05-08 17:53 | -34.82520 | -58.51857 | 74 ft | 15 kts | 244° |
| 2026-05-08 17:53 | -34.82515 | -58.51952 | 76 ft | 19 kts | 281° |
| 2026-05-08 17:53 | -34.82439 | -58.52384 | 80 ft | 85 kts | 282° |
| 2026-05-08 17:53 | -34.82273 | -58.53330 | 80 ft | 141 kts | 281° |
| 2026-05-08 17:54 | -34.82070 | -58.54605 | 431 ft | 160 kts | 280° |
| 2026-05-08 17:54 | -34.81847 | -58.55849 | 1261 ft | 149 kts | 279° |
| 2026-05-08 17:54 | -34.81630 | -58.57017 | 2038 ft | 143 kts | 277° |
| 2026-05-08 17:54 | -34.81414 | -58.58253 | 2484 ft | 158 kts | 277° |
| 2026-05-08 17:55 | -34.81184 | -58.59614 | 2896 ft | 175 kts | 274° |
| 2026-05-08 17:55 | -34.81342 | -58.61103 | 3308 ft | 191 kts | 244° |
| 2026-05-08 17:55 | -34.82180 | -58.62445 | 3764 ft | 210 kts | 231° |
| 2026-05-08 17:55 | -34.83201 | -58.63834 | 4247 ft | 228 kts | 231° |
| 2026-05-08 17:56 | -34.84271 | -58.65297 | 4811 ft | 242 kts | 230° |
| 2026-05-08 17:56 | -34.85386 | -58.66824 | 5623 ft | 246 kts | 230° |
| 2026-05-08 17:56 | -34.86510 | -58.68365 | 6421 ft | 249 kts | 230° |
| 2026-05-08 17:56 | -34.87739 | -58.69868 | 7161 ft | 256 kts | 217° |
| 2026-05-08 17:57 | -34.89400 | -58.70686 | 7917 ft | 267 kts | 192° |
| 2026-05-08 17:57 | -34.91262 | -58.70547 | 8661 ft | 281 kts | 167° |
| 2026-05-08 17:57 | -34.92974 | -58.69356 | 9396 ft | 295 kts | 141° |
| 2026-05-08 17:57 | -34.94433 | -58.67574 | 10137 ft | 301 kts | 137° |
| 2026-05-08 17:58 | -34.95818 | -58.65607 | 10558 ft | 319 kts | 130° |
| 2026-05-08 17:58 | -34.97089 | -58.63258 | 10928 ft | 339 kts | 122° |
| 2026-05-08 17:58 | -34.98093 | -58.60628 | 11545 ft | 349 kts | 112° |
| 2026-05-08 17:58 | -34.98782 | -58.57799 | 12343 ft | 353 kts | 104° |
| 2026-05-08 17:59 | -34.99128 | -58.54861 | 13104 ft | 357 kts | 95° |
| 2026-05-08 17:59 | -34.99152 | -58.51835 | 13860 ft | 360 kts | 89° |
| 2026-05-08 17:59 | -34.99063 | -58.48759 | 14391 ft | 370 kts | 88° |
| 2026-05-08 17:59 | -34.98970 | -58.45601 | 14718 ft | 387 kts | 89° |
| 2026-05-08 18:00 | -34.98879 | -58.42261 | 15077 ft | 401 kts | 89° |
| 2026-05-08 18:00 | -34.98712 | -58.35447 | 16363 ft | 409 kts | 89° |
| 2026-05-08 18:00 | -34.98632 | -58.32003 | 16645 ft | 410 kts | 88° |
| 2026-05-08 18:01 | -34.98551 | -58.28542 | 16704 ft | 410 kts | 88° |
| 2026-05-08 18:01 | -34.98471 | -58.25110 | 16724 ft | 408 kts | 88° |
| 2026-05-08 18:01 | -34.98389 | -58.21653 | 16709 ft | 408 kts | 88° |
| 2026-05-08 18:01 | -34.98306 | -58.18198 | 16704 ft | 408 kts | 88° |
| 2026-05-08 18:02 | -34.98222 | -58.14775 | 16709 ft | 408 kts | 88° |
| 2026-05-08 18:02 | -34.98166 | -58.12495 | 16709 ft | 408 kts | 88° |
| 2026-05-08 18:02 | -34.98051 | -58.07903 | 16685 ft | 408 kts | 88° |
| 2026-05-08 18:02 | -34.97965 | -58.04467 | 16694 ft | 408 kts | 88° |
| 2026-05-08 18:03 | -34.97877 | -58.01001 | 16683 ft | 409 kts | 88° |
| 2026-05-08 18:03 | -34.97790 | -57.97562 | 16697 ft | 409 kts | 88° |
| 2026-05-08 18:03 | -34.97698 | -57.94128 | 16695 ft | 408 kts | 87° |
| 2026-05-08 18:03 | -34.97239 | -57.90693 | 16693 ft | 409 kts | 72° |
| 2026-05-08 18:04 | -34.96079 | -57.87581 | 16700 ft | 408 kts | 57° |
| 2026-05-08 18:04 | -34.94389 | -57.84872 | 16709 ft | 407 kts | 49° |
| 2026-05-08 18:04 | -34.92581 | -57.82277 | 16707 ft | 406 kts | 49° |
| 2026-05-08 18:04 | -34.90761 | -57.79679 | 16705 ft | 407 kts | 49° |
| 2026-05-08 18:05 | -34.88946 | -57.77068 | 16711 ft | 407 kts | 49° |
| 2026-05-08 18:05 | -34.87152 | -57.74464 | 16714 ft | 406 kts | 49° |
| 2026-05-08 18:05 | -34.85391 | -57.71894 | 16714 ft | 406 kts | 49° |
| 2026-05-08 18:05 | -34.83593 | -57.69262 | 16702 ft | 406 kts | 49° |
| 2026-05-08 18:06 | -34.81811 | -57.66651 | 16704 ft | 406 kts | 49° |
| 2026-05-08 18:06 | -34.80023 | -57.64028 | 16713 ft | 406 kts | 49° |
| 2026-05-08 18:06 | -34.78261 | -57.61446 | 16709 ft | 407 kts | 49° |
| 2026-05-08 18:06 | -34.76466 | -57.58822 | 16706 ft | 406 kts | 49° |
| 2026-05-08 18:07 | -34.74661 | -57.56183 | 16704 ft | 406 kts | 49° |
| 2026-05-08 18:07 | -34.72969 | -57.53461 | 16689 ft | 407 kts | 60° |
| 2026-05-08 18:07 | -34.71995 | -57.50286 | 16693 ft | 408 kts | 79° |
| 2026-05-08 18:07 | -34.71864 | -57.46850 | 16708 ft | 408 kts | 95° |
| 2026-05-08 18:08 | -34.72178 | -57.43462 | 16712 ft | 409 kts | 97° |
| 2026-05-08 18:08 | -34.72514 | -57.40058 | 16708 ft | 408 kts | 97° |
| 2026-05-08 18:08 | -34.72834 | -57.36693 | 16699 ft | 408 kts | 97° |
| 2026-05-08 18:08 | -34.73141 | -57.33309 | 16700 ft | 408 kts | 96° |
| 2026-05-08 18:09 | -34.73439 | -57.29894 | 16705 ft | 409 kts | 96° |
| 2026-05-08 18:09 | -34.73731 | -57.26471 | 16701 ft | 408 kts | 96° |
| 2026-05-08 18:09 | -34.74015 | -57.23074 | 16691 ft | 408 kts | 95° |
| 2026-05-08 18:09 | -34.74295 | -57.19695 | 16697 ft | 408 kts | 95° |
| 2026-05-08 18:10 | -34.74577 | -57.16258 | 16365 ft | 410 kts | 95° |
| 2026-05-08 18:10 | -34.74856 | -57.12833 | 15830 ft | 409 kts | 95° |
| 2026-05-08 18:10 | -34.75131 | -57.09439 | 15343 ft | 407 kts | 96° |
| 2026-05-08 18:10 | -34.75407 | -57.06025 | 14881 ft | 404 kts | 96° |
| 2026-05-08 18:11 | -34.75676 | -57.02687 | 14422 ft | 402 kts | 96° |
| 2026-05-08 18:11 | -34.75947 | -56.99327 | 13963 ft | 399 kts | 96° |
| 2026-05-08 18:11 | -34.76215 | -56.95981 | 13517 ft | 397 kts | 96° |
| 2026-05-08 18:11 | -34.76478 | -56.92695 | 13064 ft | 394 kts | 96° |
| 2026-05-08 18:12 | -34.76743 | -56.89371 | 12605 ft | 392 kts | 96° |
| 2026-05-08 18:12 | -34.77004 | -56.86119 | 12171 ft | 390 kts | 96° |
| 2026-05-08 18:12 | -34.77260 | -56.82867 | 11738 ft | 387 kts | 96° |
| 2026-05-08 18:12 | -34.77515 | -56.79623 | 11277 ft | 386 kts | 95° |
| 2026-05-08 18:13 | -34.77769 | -56.76390 | 10833 ft | 384 kts | 96° |
| 2026-05-08 18:13 | -34.77970 | -56.73174 | 10382 ft | 382 kts | 91° |
| 2026-05-08 18:13 | -34.77863 | -56.70011 | 9925 ft | 369 kts | 83° |
| 2026-05-08 18:13 | -34.77461 | -56.67027 | 9809 ft | 346 kts | 78° |
| 2026-05-08 18:14 | -34.76994 | -56.64239 | 9758 ft | 325 kts | 77° |
| 2026-05-08 18:14 | -34.76548 | -56.61665 | 9743 ft | 307 kts | 77° |
| 2026-05-08 18:14 | -34.76115 | -56.59156 | 9734 ft | 298 kts | 77° |
| 2026-05-08 18:14 | -34.75697 | -56.56705 | 9714 ft | 293 kts | 77° |
| 2026-05-08 18:15 | -34.75290 | -56.54303 | 9679 ft | 291 kts | 77° |
| 2026-05-08 18:15 | -34.74883 | -56.51883 | 9418 ft | 293 kts | 78° |
| 2026-05-08 18:15 | -34.74480 | -56.49478 | 9140 ft | 293 kts | 78° |
| 2026-05-08 18:15 | -34.74071 | -56.47036 | 8875 ft | 293 kts | 78° |
| 2026-05-08 18:16 | -34.73671 | -56.44643 | 8619 ft | 292 kts | 78° |
| 2026-05-08 18:16 | -34.73268 | -56.42238 | 8365 ft | 292 kts | 78° |
| 2026-05-08 18:16 | -34.72865 | -56.39830 | 8111 ft | 291 kts | 78° |
| 2026-05-08 18:16 | -34.72458 | -56.37407 | 7854 ft | 290 kts | 78° |
| 2026-05-08 18:17 | -34.72058 | -56.35030 | 7604 ft | 289 kts | 78° |
| 2026-05-08 18:17 | -34.71656 | -56.32639 | 7349 ft | 289 kts | 77° |
| 2026-05-08 18:17 | -34.71257 | -56.30262 | 7096 ft | 288 kts | 77° |
| 2026-05-08 18:17 | -34.70855 | -56.27885 | 6846 ft | 287 kts | 78° |
| 2026-05-08 18:18 | -34.70457 | -56.25528 | 6601 ft | 286 kts | 78° |
| 2026-05-08 18:18 | -34.70060 | -56.23178 | 6355 ft | 285 kts | 78° |
| 2026-05-08 18:18 | -34.69658 | -56.20801 | 6103 ft | 285 kts | 78° |
| 2026-05-08 18:18 | -34.69257 | -56.18446 | 5857 ft | 284 kts | 77° |
| 2026-05-08 18:19 | -34.68867 | -56.16135 | 5636 ft | 282 kts | 78° |
| 2026-05-08 18:19 | -34.68466 | -56.13773 | 5370 ft | 283 kts | 77° |
| 2026-05-08 18:19 | -34.68070 | -56.11446 | 5114 ft | 283 kts | 77° |
| 2026-05-08 18:19 | -34.67675 | -56.09123 | 4871 ft | 283 kts | 77° |
| 2026-05-08 18:20 | -34.67274 | -56.06779 | 4625 ft | 283 kts | 77° |
| 2026-05-08 18:20 | -34.66875 | -56.04443 | 4378 ft | 283 kts | 77° |
| 2026-05-08 18:20 | -34.66479 | -56.02129 | 4136 ft | 282 kts | 77° |
| 2026-05-08 18:20 | -34.66078 | -55.99790 | 3893 ft | 282 kts | 77° |
| 2026-05-08 18:21 | -34.65678 | -55.97456 | 3654 ft | 282 kts | 77° |
| 2026-05-08 18:21 | -34.65281 | -55.95143 | 3415 ft | 282 kts | 77° |
| 2026-05-08 18:21 | -34.65172 | -55.92747 | 3037 ft | 286 kts | 106° |
| 2026-05-08 18:21 | -34.66121 | -55.90692 | 2975 ft | 271 kts | 144° |
| 2026-05-08 18:22 | -34.67580 | -55.89372 | 2994 ft | 254 kts | 154° |
| 2026-05-08 18:22 | -34.69031 | -55.88238 | 2994 ft | 244 kts | 155° |
| 2026-05-08 18:22 | -34.70414 | -55.87126 | 2988 ft | 235 kts | 153° |
| 2026-05-08 18:22 | -34.71783 | -55.86218 | 2961 ft | 213 kts | 178° |
| 2026-05-08 18:23 | -34.73127 | -55.86309 | 2953 ft | 178 kts | 216° |
| 2026-05-08 18:23 | -34.74038 | -55.87143 | 2943 ft | 156 kts | 234° |
| 2026-05-08 18:23 | -34.74725 | -55.88127 | 2771 ft | 152 kts | 239° |
| 2026-05-08 18:23 | -34.75363 | -55.89143 | 2561 ft | 150 kts | 240° |
| 2026-05-08 18:24 | -34.75983 | -55.90160 | 2358 ft | 149 kts | 240° |
| 2026-05-08 18:24 | -34.76597 | -55.91175 | 2158 ft | 147 kts | 240° |
| 2026-05-08 18:24 | -34.77186 | -55.92142 | 1967 ft | 139 kts | 240° |
| 2026-05-08 18:24 | -34.77742 | -55.93056 | 1773 ft | 133 kts | 241° |
| 2026-05-08 18:25 | -34.78294 | -55.93969 | 1602 ft | 133 kts | 240° |
| 2026-05-08 18:25 | -34.78841 | -55.94870 | 1428 ft | 133 kts | 240° |
| 2026-05-08 18:25 | -34.79391 | -55.95776 | 1254 ft | 133 kts | 239° |
| 2026-05-08 18:25 | -34.79944 | -55.96684 | 1080 ft | 133 kts | 239° |
| 2026-05-08 18:26 | -34.80493 | -55.97584 | 890 ft | 132 kts | 239° |
| 2026-05-08 18:26 | -34.81035 | -55.98476 | 720 ft | 132 kts | 239° |
| 2026-05-08 18:26 | -34.81572 | -55.99354 | 534 ft | 131 kts | 239° |
| 2026-05-08 18:26 | -34.82108 | -56.00236 | 356 ft | 130 kts | 239° |
| 2026-05-08 18:27 | -34.82644 | -56.01123 | 151 ft | 130 kts | 238° |
| 2026-05-08 18:27 | -34.82983 | -56.01703 | 98 ft | 120 kts | 237° |
| 2026-05-08 18:27 | -34.83464 | -56.02487 | 86 ft | 58 kts | 233° |
| 2026-05-08 18:27 | -34.83649 | -56.02779 | 79 ft | 28 kts | 232° |
| 2026-05-08 18:28 | -34.83762 | -56.02845 | 75 ft | 9 kts | 179° |
| 2026-05-08 18:28 | -34.83837 | -56.02848 | 73 ft | 11 kts | 179° |
| 2026-05-08 18:28 | -34.83917 | -56.02824 | 71 ft | 12 kts | 153° |
| 2026-05-08 18:28 | -34.83975 | -56.02753 | 70 ft | 11 kts | 104° |
| 2026-05-08 18:29 | -34.83963 | -56.02668 | 71 ft | 9 kts | 73° |
| 2026-05-08 18:29 | -34.83948 | -56.02589 | 72 ft | 9 kts | 84° |
| 2026-05-08 18:29 | -34.83946 | -56.02486 | 72 ft | 14 kts | 90° |
| 2026-05-08 18:29 | -34.83947 | -56.02352 | 72 ft | 16 kts | 90° |
| 2026-05-08 18:30 | -34.83924 | -56.02261 | 72 ft | 8 kts | 21° |
| 2026-05-08 18:30 | -34.83842 | -56.02242 | 76 ft | 13 kts | 6° |
| 2026-05-08 18:30 | -34.83768 | -56.02208 | 79 ft | 10 kts | 45° |
| 2026-05-08 18:30 | -34.83719 | -56.02137 | 81 ft | 11 kts | 54° |
| 2026-05-08 18:31 | -34.83671 | -56.02053 | 83 ft | 12 kts | 54° |
| 2026-05-08 18:31 | -34.83623 | -56.01972 | 84 ft | 12 kts | 53° |
| 2026-05-08 18:31 | -34.83570 | -56.01888 | 86 ft | 11 kts | 53° |
| 2026-05-08 18:31 | -34.83524 | -56.01814 | 88 ft | 10 kts | 52° |
| 2026-05-08 18:32 | -34.83482 | -56.01745 | 90 ft | 7 kts | 65° |
| 2026-05-08 18:32 | -34.83490 | -56.01718 | 90 ft | 6 kts | 134° |
| 2026-05-08 18:32 | -34.83532 | -56.01670 | 88 ft | 2 kts | 140° |
| 2026-05-08 18:32 | -34.83543 | -56.01659 | 88 ft | 0 kts | 142° |